07/18 15:00 更新

4,000ftに雲が少し
4,500ftに雲が散在
25,000ftに雲が多い

地上風: 170°12kt

上空風
13,000ft: 未計測
10,000ft: 290°13kt
 7,000ft: 290°10kt
 3,000ft: 110°8kt

地上: 36℃
上空: 13.2℃

日没: 18:56

実況天気図


予想天気図


RJTJ 180600Z 17012KT 9999 FEW040 SCT045 BKN250 36/24 Q1008 RMK 1CU040 3CU045 A2978 MAX WIND 18KT=

GPV気象予報
気象庁
日本気象協会

玉淀ダム放流量(1,000m3/sを超えた7時間後にDZ冠水)
太郎衛門橋テレメータ水位(11mでDZ冠水)

skydive.jp